Time;durP1;ratioP1;P1;durP2;ratioP2;P2;SDS_P1;SDS_P2;PMS_P1;PMS_P2;Temp;Humidity;BMP_temperature;BMP_pressure;BME280_temperature;BME280_humidity;BME280_pressure;Samples;Min_cycle;Max_cycle;Signal;HPM_P1;HPM_P2
2021/07/29 00:00:30;;;;;;;8.55;5.72;;;;;;;;;;5133931;28;20027;-83
2021/07/29 00:02:56;;;;;;;7.03;5.03;;;;;;;;;;5133896;28;20106;-79
2021/07/29 00:05:22;;;;;;;7.30;3.63;;;;;;;;;;5134006;28;20062;-79
2021/07/29 00:07:51;;;;;;;8.10;4.93;;;;;;;;;;5134227;28;20019;-79
2021/07/29 00:10:17;;;;;;;6.43;4.75;;;;;;;;;;5134319;28;20026;-79
2021/07/29 00:12:43;;;;;;;7.70;5.50;;;;;;;;;;5133870;28;20019;-79
2021/07/29 00:15:11;;;;;;;8.60;3.15;;;;;;;;;;5133895;28;20024;-79
2021/07/29 00:20:24;;;;;;;7.38;4.72;;;;;;;;;;5136791;27;20054;-78
2021/07/29 00:22:53;;;;;;;10.07;5.28;;;;;;;;;;5137841;27;20029;-79
2021/07/29 00:25:22;;;;;;;9.60;5.43;;;;;;;;;;5146366;27;20019;-79
2021/07/29 00:27:48;;;;;;;8.23;4.20;;;;;;;;;;5158404;27;20038;-79
2021/07/29 00:30:16;;;;;;;8.23;5.82;;;;;;;;;;5158117;27;20019;-79
2021/07/29 00:32:42;;;;;;;7.75;6.20;;;;;;;;;;5158113;27;20022;-79
2021/07/29 00:35:14;;;;;;;6.63;4.57;;;;;;;;;;5152062;27;20073;-79
2021/07/29 00:37:44;;;;;;;8.65;6.38;;;;;;;;;;5137395;27;20042;-79
2021/07/29 00:40:11;;;;;;;8.93;5.60;;;;;;;;;;5118754;27;20031;-79
2021/07/29 00:42:36;;;;;;;9.32;3.17;;;;;;;;;;5137432;27;20412;-78
2021/07/29 00:45:02;;;;;;;9.13;5.68;;;;;;;;;;5141749;27;20015;-78
2021/07/29 00:47:29;;;;;;;9.85;6.05;;;;;;;;;;5157820;27;20050;-79
2021/07/29 00:49:55;;;;;;;7.75;5.65;;;;;;;;;;5157734;27;20019;-78
2021/07/29 00:52:21;;;;;;;11.68;5.75;;;;;;;;;;5157676;27;20029;-79
2021/07/29 00:54:49;;;;;;;12.90;6.53;;;;;;;;;;5157658;27;20033;-78
2021/07/29 00:57:15;;;;;;;10.80;4.93;;;;;;;;;;5157569;27;20470;-79
2021/07/29 00:59:41;;;;;;;11.88;6.10;;;;;;;;;;5157643;27;20026;-78
2021/07/29 01:02:07;;;;;;;12.63;5.45;;;;;;;;;;5157472;27;20050;-79
2021/07/29 01:04:33;;;;;;;13.48;5.07;;;;;;;;;;5157531;27;20156;-79
2021/07/29 01:06:59;;;;;;;9.07;4.70;;;;;;;;;;5157458;27;20106;-79
2021/07/29 01:09:24;;;;;;;13.75;4.32;;;;;;;;;;5152729;27;20018;-79
2021/07/29 01:11:50;;;;;;;11.80;4.40;;;;;;;;;;5153073;27;20023;-79
2021/07/29 01:14:17;;;;;;;14.20;4.13;;;;;;;;;;5136616;27;20042;-79
2021/07/29 01:16:44;;;;;;;13.07;5.15;;;;;;;;;;5136276;27;20131;-82
2021/07/29 01:19:12;;;;;;;11.77;6.07;;;;;;;;;;5118085;27;20023;-79
2021/07/29 01:21:38;;;;;;;13.88;6.53;;;;;;;;;;5117834;27;20055;-79
2021/07/29 01:24:05;;;;;;;9.70;5.97;;;;;;;;;;5136597;27;20421;-79
2021/07/29 01:26:31;;;;;;;15.45;6.07;;;;;;;;;;5136280;27;20034;-78
2021/07/29 01:28:58;;;;;;;9.60;5.50;;;;;;;;;;5136265;27;20027;-79
2021/07/29 01:31:24;;;;;;;14.32;5.72;;;;;;;;;;5135157;27;20031;-79
2021/07/29 01:33:51;;;;;;;9.68;6.30;;;;;;;;;;5136074;27;20015;-79
2021/07/29 01:36:17;;;;;;;10.38;6.55;;;;;;;;;;5136216;27;20064;-78
2021/07/29 01:38:42;;;;;;;6.70;3.55;;;;;;;;;;5136057;27;20416;-79
2021/07/29 01:41:08;;;;;;;6.80;3.47;;;;;;;;;;5135981;27;20030;-78
2021/07/29 01:43:34;;;;;;;9.05;3.65;;;;;;;;;;5135978;27;20039;-81
2021/07/29 01:46:00;;;;;;;7.95;3.47;;;;;;;;;;5136167;27;20031;-79
2021/07/29 01:48:27;;;;;;;8.82;5.65;;;;;;;;;;5135973;27;20019;-79
2021/07/29 01:50:53;;;;;;;13.13;5.07;;;;;;;;;;5135900;27;20027;-79
2021/07/29 01:53:19;;;;;;;10.70;4.90;;;;;;;;;;5117395;27;20106;-79
2021/07/29 01:55:46;;;;;;;13.02;3.00;;;;;;;;;;5135773;27;20470;-79
2021/07/29 01:58:13;;;;;;;13.23;5.13;;;;;;;;;;5151055;27;20023;-79
2021/07/29 02:00:41;;;;;;;7.97;5.88;;;;;;;;;;5139193;27;20019;-79
2021/07/29 02:03:07;;;;;;;9.27;3.47;;;;;;;;;;5136203;27;20403;-79
2021/07/29 02:05:33;;;;;;;8.85;3.70;;;;;;;;;;5136318;27;20115;-79
2021/07/29 02:07:59;;;;;;;8.52;5.47;;;;;;;;;;5135683;27;20016;-79
2021/07/29 02:10:26;;;;;;;12.38;4.90;;;;;;;;;;5135370;27;20019;-79
2021/07/29 02:12:52;;;;;;;8.95;3.88;;;;;;;;;;5135419;27;20068;-79
2021/07/29 02:15:18;;;;;;;11.27;5.78;;;;;;;;;;5135430;27;20027;-79
2021/07/29 02:17:44;;;;;;;7.03;5.78;;;;;;;;;;5135126;27;20043;-80
2021/07/29 02:20:10;;;;;;;7.78;5.65;;;;;;;;;;5135255;27;20547;-79
2021/07/29 02:22:36;;;;;;;12.65;5.43;;;;;;;;;;5135136;27;20027;-79
2021/07/29 02:25:07;;;;;;;9.80;4.07;;;;;;;;;;5135440;27;20016;-79
2021/07/29 02:27:33;;;;;;;10.57;4.35;;;;;;;;;;5135121;27;20023;-79
2021/07/29 02:29:59;;;;;;;10.52;5.03;;;;;;;;;;5135132;27;20068;-79
2021/07/29 02:32:25;;;;;;;11.40;5.85;;;;;;;;;;5135040;27;20031;-79
2021/07/29 02:34:52;;;;;;;10.65;6.30;;;;;;;;;;5135046;27;20031;-79
2021/07/29 02:37:21;;;;;;;11.88;4.95;;;;;;;;;;5135027;27;20023;-79
2021/07/29 02:39:47;;;;;;;13.93;6.53;;;;;;;;;;5134847;27;20026;-80
2021/07/29 02:42:12;;;;;;;9.63;6.07;;;;;;;;;;5134570;27;20114;-80
2021/07/29 02:44:38;;;;;;;16.95;5.70;;;;;;;;;;5135021;27;20508;-80
2021/07/29 02:47:04;;;;;;;9.45;5.85;;;;;;;;;;5134787;27;20471;-82
2021/07/29 02:49:30;;;;;;;11.88;4.18;;;;;;;;;;5135333;27;20083;-80
2021/07/29 02:51:55;;;;;;;18.50;4.43;;;;;;;;;;5134763;27;20023;-80
2021/07/29 02:54:21;;;;;;;7.60;4.68;;;;;;;;;;5134648;27;20038;-80
2021/07/29 02:56:47;;;;;;;10.60;4.57;;;;;;;;;;5134797;27;20023;-80
2021/07/29 02:59:12;;;;;;;11.40;4.85;;;;;;;;;;5134786;27;20015;-80
2021/07/29 03:01:38;;;;;;;9.45;3.65;;;;;;;;;;5134518;27;20109;-80
2021/07/29 03:04:04;;;;;;;10.40;4.20;;;;;;;;;;5135097;27;20020;-81
2021/07/29 03:06:29;;;;;;;13.48;5.95;;;;;;;;;;5116128;27;20550;-80
2021/07/29 03:08:55;;;;;;;10.43;4.95;;;;;;;;;;5134735;27;20114;-80
2021/07/29 03:11:20;;;;;;;12.90;5.20;;;;;;;;;;5134450;27;20030;-80
2021/07/29 03:13:47;;;;;;;11.93;5.25;;;;;;;;;;5134850;27;20110;-80
2021/07/29 03:16:12;;;;;;;10.65;5.38;;;;;;;;;;5134223;28;20074;-80
2021/07/29 03:18:38;;;;;;;9.05;5.53;;;;;;;;;;5134508;28;20443;-79
2021/07/29 03:21:07;;;;;;;9.10;3.10;;;;;;;;;;5134349;28;20355;-80
2021/07/29 03:23:34;;;;;;;11.70;4.50;;;;;;;;;;5134350;28;20034;-79
2021/07/29 03:25:59;;;;;;;17.40;5.63;;;;;;;;;;5134379;28;20107;-80
2021/07/29 03:28:25;;;;;;;9.60;5.97;;;;;;;;;;5134433;28;20055;-80
2021/07/29 03:30:52;;;;;;;10.93;5.30;;;;;;;;;;5134329;28;20023;-80
2021/07/29 03:33:18;;;;;;;8.88;4.80;;;;;;;;;;5115923;28;20030;-80
2021/07/29 03:35:44;;;;;;;8.07;4.50;;;;;;;;;;5134230;28;20057;-80
2021/07/29 03:38:10;;;;;;;10.40;4.75;;;;;;;;;;5134246;28;20027;-80
2021/07/29 03:40:37;;;;;;;8.77;5.38;;;;;;;;;;5134264;28;20023;-80
2021/07/29 03:43:04;;;;;;;7.22;4.35;;;;;;;;;;5134153;28;20027;-80
2021/07/29 03:45:31;;;;;;;13.70;4.90;;;;;;;;;;5134549;28;20101;-80
2021/07/29 03:47:58;;;;;;;13.00;5.40;;;;;;;;;;5134205;28;20027;-79
2021/07/29 03:50:24;;;;;;;13.60;4.93;;;;;;;;;;5134138;28;20076;-80
2021/07/29 03:52:50;;;;;;;9.15;3.72;;;;;;;;;;5134056;27;20072;-80
2021/07/29 03:55:16;;;;;;;12.13;4.72;;;;;;;;;;5137763;27;20019;-80
2021/07/29 03:57:41;;;;;;;9.07;5.85;;;;;;;;;;5138077;27;20427;-81
2021/07/29 04:00:08;;;;;;;10.25;4.93;;;;;;;;;;5138067;27;20019;-80
2021/07/29 04:02:34;;;;;;;6.97;5.00;;;;;;;;;;5138006;27;20023;-81
2021/07/29 04:05:01;;;;;;;11.02;4.63;;;;;;;;;;5137972;27;20042;-80
2021/07/29 04:07:27;;;;;;;8.98;4.75;;;;;;;;;;5137909;27;20029;-80
2021/07/29 04:09:52;;;;;;;7.65;4.93;;;;;;;;;;5137829;27;20114;-80
2021/07/29 04:12:18;;;;;;;11.77;2.15;;;;;;;;;;5137799;27;20363;-80
2021/07/29 04:14:44;;;;;;;10.65;4.35;;;;;;;;;;5137730;27;20042;-80
2021/07/29 04:17:10;;;;;;;11.05;5.00;;;;;;;;;;5137630;27;20043;-80
2021/07/29 04:19:36;;;;;;;11.85;4.53;;;;;;;;;;5137681;27;20533;-80
2021/07/29 04:22:04;;;;;;;7.85;4.18;;;;;;;;;;5137534;27;20079;-80
2021/07/29 04:24:30;;;;;;;8.15;5.10;;;;;;;;;;5137541;27;20076;-80
2021/07/29 04:26:57;;;;;;;12.10;4.72;;;;;;;;;;5137782;27;20096;-79
2021/07/29 04:29:24;;;;;;;16.10;3.15;;;;;;;;;;5137613;27;20430;-80
2021/07/29 04:31:53;;;;;;;7.57;3.97;;;;;;;;;;5137366;27;20489;-82
2021/07/29 04:34:19;;;;;;;13.55;4.63;;;;;;;;;;5137384;27;20035;-83
2021/07/29 04:36:46;;;;;;;12.77;5.20;;;;;;;;;;5118937;27;20048;-80
2021/07/29 04:39:13;;;;;;;9.52;4.63;;;;;;;;;;5119149;27;20027;-80
2021/07/29 04:41:43;;;;;;;11.65;4.80;;;;;;;;;;5137145;27;20106;-80
2021/07/29 04:44:11;;;;;;;11.50;6.03;;;;;;;;;;5137146;27;20027;-80
2021/07/29 04:46:38;;;;;;;21.13;6.10;;;;;;;;;;5137156;27;20019;-80
2021/07/29 04:49:05;;;;;;;8.35;5.68;;;;;;;;;;5137345;27;20504;-80
2021/07/29 04:51:32;;;;;;;6.93;4.82;;;;;;;;;;5137084;27;20046;-80
2021/07/29 04:53:57;;;;;;;10.02;4.20;;;;;;;;;;5136988;27;20466;-80
2021/07/29 04:56:23;;;;;;;8.93;4.57;;;;;;;;;;5137227;27;20027;-81
2021/07/29 04:58:49;;;;;;;8.07;4.60;;;;;;;;;;5119263;27;20531;-80
2021/07/29 05:01:16;;;;;;;9.40;2.70;;;;;;;;;;5136822;27;20469;-80
2021/07/29 05:03:41;;;;;;;8.02;2.78;;;;;;;;;;5137139;27;20030;-80
2021/07/29 05:06:07;;;;;;;25.42;5.85;;;;;;;;;;5136515;27;20019;-80
2021/07/29 05:08:33;;;;;;;10.10;2.20;;;;;;;;;;5136607;27;20027;-80
2021/07/29 05:11:02;;;;;;;9.60;4.47;;;;;;;;;;5136578;27;20034;-80
2021/07/29 05:13:28;;;;;;;9.60;4.55;;;;;;;;;;5136773;27;20051;-81
2021/07/29 05:15:54;;;;;;;7.20;3.92;;;;;;;;;;5136261;27;20054;-83
2021/07/29 05:18:19;;;;;;;7.57;4.40;;;;;;;;;;5136460;27;20023;-80
2021/07/29 05:20:45;;;;;;;7.20;3.47;;;;;;;;;;5136354;27;20027;-80
2021/07/29 05:23:11;;;;;;;9.70;2.10;;;;;;;;;;5136321;27;20027;-80
2021/07/29 05:25:36;;;;;;;7.95;4.88;;;;;;;;;;5136343;27;20025;-80
2021/07/29 05:28:03;;;;;;;9.50;2.53;;;;;;;;;;5136298;27;20030;-80
2021/07/29 05:30:28;;;;;;;10.85;4.05;;;;;;;;;;5136216;27;20030;-81
2021/07/29 05:32:54;;;;;;;11.35;5.38;;;;;;;;;;5136193;27;20387;-80
2021/07/29 05:35:19;;;;;;;9.95;4.70;;;;;;;;;;5136168;27;20459;-80
2021/07/29 05:37:45;;;;;;;6.85;3.33;;;;;;;;;;5135982;27;20053;-80
2021/07/29 05:40:11;;;;;;;9.02;3.90;;;;;;;;;;5136014;27;20027;-80
2021/07/29 05:42:36;;;;;;;7.20;3.55;;;;;;;;;;5136006;27;20038;-80
2021/07/29 05:45:03;;;;;;;10.60;5.22;;;;;;;;;;5117518;27;20023;-81
2021/07/29 05:47:29;;;;;;;8.80;2.95;;;;;;;;;;5135905;27;20050;-80
2021/07/29 05:49:54;;;;;;;20.08;5.25;;;;;;;;;;5136170;27;20072;-82
2021/07/29 05:52:20;;;;;;;7.85;3.33;;;;;;;;;;5135798;27;20031;-82
2021/07/29 05:54:46;;;;;;;7.95;2.13;;;;;;;;;;5135850;27;20023;-82
2021/07/29 05:57:11;;;;;;;10.52;3.40;;;;;;;;;;5135876;27;20470;-83
2021/07/29 05:59:37;;;;;;;8.45;2.42;;;;;;;;;;5119809;27;20017;-82
2021/07/29 06:02:03;;;;;;;5.95;2.17;;;;;;;;;;5119797;27;20023;-82
2021/07/29 06:04:29;;;;;;;6.78;3.70;;;;;;;;;;5143758;27;20034;-80
2021/07/29 06:06:54;;;;;;;9.35;4.72;;;;;;;;;;5164634;27;20044;-81
2021/07/29 06:09:20;;;;;;;7.45;4.32;;;;;;;;;;5162956;27;20561;-81
2021/07/29 06:11:46;;;;;;;11.45;4.50;;;;;;;;;;5157337;27;20465;-81
2021/07/29 06:14:11;;;;;;;9.68;3.15;;;;;;;;;;5156926;27;20404;-82
2021/07/29 06:16:37;;;;;;;9.07;2.90;;;;;;;;;;5127195;27;20035;-82
2021/07/29 06:19:08;;;;;;;7.82;1.88;;;;;;;;;;5148686;27;20038;-80
2021/07/29 06:21:35;;;;;;;7.30;3.08;;;;;;;;;;5135156;27;20505;-80
2021/07/29 06:24:02;;;;;;;11.00;3.03;;;;;;;;;;5146199;27;20363;-80
2021/07/29 06:26:27;;;;;;;9.00;2.25;;;;;;;;;;5155887;27;20018;-81
2021/07/29 06:28:53;;;;;;;11.45;4.95;;;;;;;;;;5156188;27;20101;-81
2021/07/29 06:31:19;;;;;;;9.07;3.38;;;;;;;;;;5156086;27;20034;-81
2021/07/29 06:33:44;;;;;;;11.68;4.78;;;;;;;;;;5155988;27;20026;-81
2021/07/29 06:36:10;;;;;;;12.38;3.65;;;;;;;;;;5155635;27;20385;-81
2021/07/29 06:38:38;;;;;;;11.40;2.38;;;;;;;;;;5155617;27;20037;-81
2021/07/29 06:41:04;;;;;;;13.20;2.83;;;;;;;;;;5155523;27;20023;-83
2021/07/29 06:43:30;;;;;;;21.10;5.63;;;;;;;;;;5155986;27;20030;-80
2021/07/29 06:45:56;;;;;;;40.67;7.00;;;;;;;;;;5155577;27;20466;-80
2021/07/29 06:48:21;;;;;;;14.90;3.10;;;;;;;;;;5155456;27;20037;-80
2021/07/29 06:50:47;;;;;;;9.60;3.53;;;;;;;;;;5155525;27;20030;-81
2021/07/29 06:53:13;;;;;;;15.98;6.00;;;;;;;;;;5119299;27;20048;-81
2021/07/29 06:55:38;;;;;;;9.68;2.00;;;;;;;;;;5134631;27;20023;-81
2021/07/29 06:58:04;;;;;;;78.85;17.33;;;;;;;;;;5134767;27;20037;-81
2021/07/29 07:00:30;;;;;;;36.85;7.93;;;;;;;;;;5134672;27;20058;-82
2021/07/29 07:02:55;;;;;;;30.58;6.57;;;;;;;;;;5134715;27;20048;-81
2021/07/29 07:05:21;;;;;;;16.92;4.47;;;;;;;;;;5116106;27;20066;-82
2021/07/29 07:07:46;;;;;;;11.68;4.15;;;;;;;;;;5134467;27;20055;-81
2021/07/29 07:10:12;;;;;;;13.35;4.28;;;;;;;;;;5134495;27;20019;-82
2021/07/29 07:12:38;;;;;;;7.28;2.75;;;;;;;;;;5134500;27;20027;-81
2021/07/29 07:15:05;;;;;;;10.95;4.85;;;;;;;;;;5134568;28;20027;-81
2021/07/29 07:17:30;;;;;;;10.40;3.22;;;;;;;;;;5134168;28;20119;-81
2021/07/29 07:19:59;;;;;;;8.20;2.78;;;;;;;;;;5134536;28;20474;-81
2021/07/29 07:22:25;;;;;;;8.93;2.42;;;;;;;;;;5134267;28;20094;-82
2021/07/29 07:24:51;;;;;;;7.05;2.42;;;;;;;;;;5134342;28;20023;-82
2021/07/29 07:27:17;;;;;;;6.28;2.35;;;;;;;;;;5134465;27;20498;-82
2021/07/29 07:29:42;;;;;;;5.30;2.63;;;;;;;;;;5137463;27;20019;-81
2021/07/29 07:32:08;;;;;;;10.45;2.95;;;;;;;;;;5138496;27;20053;-82
2021/07/29 07:34:34;;;;;;;8.52;2.40;;;;;;;;;;5152267;27;20027;-81
2021/07/29 07:37:00;;;;;;;6.38;2.15;;;;;;;;;;5143800;27;20421;-81
2021/07/29 07:39:26;;;;;;;7.15;2.35;;;;;;;;;;5138839;27;20429;-81
2021/07/29 07:41:52;;;;;;;8.00;2.67;;;;;;;;;;5153138;27;20027;-81
2021/07/29 07:44:17;;;;;;;7.88;2.13;;;;;;;;;;5159328;27;20026;-82
2021/07/29 07:46:44;;;;;;;7.90;1.90;;;;;;;;;;5135730;27;20034;-83
2021/07/29 07:49:12;;;;;;;6.53;2.50;;;;;;;;;;5138908;27;20046;-83
2021/07/29 07:51:38;;;;;;;6.97;1.98;;;;;;;;;;5138166;27;20016;-81
2021/07/29 07:54:04;;;;;;;5.45;3.47;;;;;;;;;;5138357;27;20343;-82
2021/07/29 07:56:30;;;;;;;8.00;2.70;;;;;;;;;;5138170;27;20030;-82
2021/07/29 07:59:07;;;;;;;12.43;2.35;;;;;;;;;;5141150;27;20019;-82
2021/07/29 08:01:32;;;;;;;7.15;2.05;;;;;;;;;;5143393;27;20031;-83
2021/07/29 08:03:58;;;;;;;6.10;2.58;;;;;;;;;;5141595;27;20015;-82
2021/07/29 08:06:23;;;;;;;8.32;1.80;;;;;;;;;;5140652;27;20028;-82
2021/07/29 08:08:49;;;;;;;8.05;3.47;;;;;;;;;;5142341;27;20382;-82
2021/07/29 08:11:15;;;;;;;8.57;2.28;;;;;;;;;;5141041;27;20050;-82
2021/07/29 08:13:44;;;;;;;7.05;2.70;;;;;;;;;;5143689;27;20019;-83
2021/07/29 08:16:09;;;;;;;5.13;2.45;;;;;;;;;;5147239;27;20047;-81
2021/07/29 08:18:35;;;;;;;8.27;1.33;;;;;;;;;;5140548;27;20483;-82
2021/07/29 08:21:12;;;;;;;5.18;1.92;;;;;;;;;;5141670;27;20482;-82
2021/07/29 08:23:39;;;;;;;6.80;3.17;;;;;;;;;;5146044;27;20082;-82
2021/07/29 08:26:05;;;;;;;8.00;2.13;;;;;;;;;;5150666;27;20102;-82
2021/07/29 08:28:31;;;;;;;10.75;2.28;;;;;;;;;;5149096;27;20030;-82
2021/07/29 08:30:57;;;;;;;6.80;2.05;;;;;;;;;;5160124;27;20023;-81
2021/07/29 08:33:23;;;;;;;9.52;2.70;;;;;;;;;;5159444;27;20023;-79
2021/07/29 08:35:48;;;;;;;8.23;3.17;;;;;;;;;;5159572;27;20023;-83
2021/07/29 08:38:14;;;;;;;5.15;2.42;;;;;;;;;;5146627;27;20027;-84
2021/07/29 08:40:40;;;;;;;6.25;2.65;;;;;;;;;;5139943;27;20046;-84
2021/07/29 08:43:07;;;;;;;7.13;2.55;;;;;;;;;;5152423;27;20516;-87
2021/07/29 08:45:41;;;;;;;7.30;2.38;;;;;;;;;;5160475;27;20122;-88
2021/07/29 08:48:10;;;;;;;9.30;3.10;;;;;;;;;;5161065;27;20031;-89
2021/07/29 08:50:37;;;;;;;6.95;2.72;;;;;;;;;;5143447;27;20042;-89
2021/07/29 08:53:02;;;;;;;11.65;3.38;;;;;;;;;;5161482;27;20034;-88
2021/07/29 08:55:28;;;;;;;6.88;2.90;;;;;;;;;;5142731;27;20150;-86
2021/07/29 08:57:54;;;;;;;8.85;3.58;;;;;;;;;;5161611;27;20026;-86
2021/07/29 09:00:20;;;;;;;10.52;3.10;;;;;;;;;;5148086;27;20023;-87
2021/07/29 09:02:46;;;;;;;22.85;5.03;;;;;;;;;;5161722;27;20023;-84
2021/07/29 09:05:15;;;;;;;11.35;2.78;;;;;;;;;;5140611;27;20550;-85
2021/07/29 09:07:43;;;;;;;7.88;3.53;;;;;;;;;;5158364;27;20026;-84
2021/07/29 09:10:20;;;;;;;8.25;3.25;;;;;;;;;;5158240;27;20045;-84
2021/07/29 09:13:04;;;;;;;6.93;2.38;;;;;;;;;;5158342;27;20030;-83
2021/07/29 09:15:29;;;;;;;12.73;2.67;;;;;;;;;;5158555;27;20015;-83
2021/07/29 09:18:02;;;;;;;7.32;2.92;;;;;;;;;;5160017;27;20042;-85
2021/07/29 09:20:28;;;;;;;9.02;3.15;;;;;;;;;;5160074;27;20019;-83
2021/07/29 09:22:53;;;;;;;7.43;3.45;;;;;;;;;;5139627;27;20046;-83
2021/07/29 09:25:24;;;;;;;8.38;2.65;;;;;;;;;;5158708;27;20026;-84
2021/07/29 09:27:51;;;;;;;9.38;3.47;;;;;;;;;;5157989;27;20023;-84
2021/07/29 09:30:31;;;;;;;7.68;3.40;;;;;;;;;;5159055;27;20042;-84
2021/07/29 09:33:13;;;;;;;5.70;2.97;;;;;;;;;;5158088;27;20026;-83
2021/07/29 09:35:47;;;;;;;11.38;2.63;;;;;;;;;;5158381;27;20030;-84
2021/07/29 09:38:32;;;;;;;8.15;2.95;;;;;;;;;;5139441;27;20077;-84
2021/07/29 09:41:00;;;;;;;8.18;2.85;;;;;;;;;;5157878;27;20027;-85
2021/07/29 09:43:31;;;;;;;7.03;2.53;;;;;;;;;;5139182;27;20023;-85
2021/07/29 09:45:59;;;;;;;9.30;2.97;;;;;;;;;;5158353;27;20018;-84
2021/07/29 09:48:25;;;;;;;10.30;3.28;;;;;;;;;;5157561;27;20029;-84
2021/07/29 09:51:00;;;;;;;12.73;3.08;;;;;;;;;;5157023;27;20126;-87
2021/07/29 09:53:37;;;;;;;7.90;4.15;;;;;;;;;;5158919;27;20034;-84
2021/07/29 09:56:08;;;;;;;14.13;3.38;;;;;;;;;;5158481;27;20018;-85
2021/07/29 09:58:37;;;;;;;9.70;2.50;;;;;;;;;;5157650;27;20026;-84
2021/07/29 10:01:03;;;;;;;10.52;2.78;;;;;;;;;;5157620;27;20062;-84
2021/07/29 10:03:30;;;;;;;10.05;3.63;;;;;;;;;;5157249;27;20097;-85
2021/07/29 10:06:01;;;;;;;5.22;2.70;;;;;;;;;;5156886;27;20018;-85
2021/07/29 10:08:42;;;;;;;7.18;2.70;;;;;;;;;;5157749;27;20370;-83
2021/07/29 10:11:13;;;;;;;8.45;2.83;;;;;;;;;;5157818;27;20026;-89
2021/07/29 10:13:40;;;;;;;10.15;3.40;;;;;;;;;;5139223;27;20050;-87
2021/07/29 10:16:14;;;;;;;9.40;3.15;;;;;;;;;;5164854;27;20542;-90
2021/07/29 10:18:51;;;;;;;11.73;4.25;;;;;;;;;;5168800;27;20078;-85
2021/07/29 10:21:30;;;;;;;7.45;2.90;;;;;;;;;;5150308;27;20057;-85
2021/07/29 10:23:58;;;;;;;9.32;3.60;;;;;;;;;;5143899;27;20019;-86
2021/07/29 10:26:24;;;;;;;10.68;4.18;;;;;;;;;;5118587;27;20386;-88
2021/07/29 10:28:50;;;;;;;10.93;4.90;;;;;;;;;;5119160;27;20015;-85
2021/07/29 10:31:18;;;;;;;6.65;4.45;;;;;;;;;;5119654;27;20046;-86
2021/07/29 10:33:46;;;;;;;10.68;4.32;;;;;;;;;;5138722;27;20019;-85
2021/07/29 10:36:43;;;;;;;9.07;3.38;;;;;;;;;;5136508;27;20379;-85
2021/07/29 10:39:09;;;;;;;12.65;4.78;;;;;;;;;;5137141;27;20043;-87
2021/07/29 10:41:35;;;;;;;13.43;3.90;;;;;;;;;;5135899;27;20081;-84
2021/07/29 10:44:05;;;;;;;11.13;3.00;;;;;;;;;;5136393;27;20470;-84
2021/07/29 10:47:02;;;;;;;11.43;5.30;;;;;;;;;;5135895;27;20038;-87
2021/07/29 10:49:46;;;;;;;10.80;4.53;;;;;;;;;;5120024;27;20034;-83
2021/07/29 10:52:13;;;;;;;10.57;4.80;;;;;;;;;;5155600;27;20090;-85
2021/07/29 10:54:40;;;;;;;10.15;2.97;;;;;;;;;;5155613;27;20015;-85
2021/07/29 10:57:07;;;;;;;10.05;3.50;;;;;;;;;;5155424;27;20022;-84
2021/07/29 10:59:33;;;;;;;7.93;2.92;;;;;;;;;;5155592;27;20020;-85
2021/07/29 11:02:03;;;;;;;8.15;4.07;;;;;;;;;;5159285;27;20470;-86
2021/07/29 11:04:30;;;;;;;15.15;3.25;;;;;;;;;;5159122;27;20019;-84
2021/07/29 11:07:05;;;;;;;10.27;4.38;;;;;;;;;;5140582;27;20109;-84
2021/07/29 11:09:35;;;;;;;11.30;2.60;;;;;;;;;;5160840;27;20113;-82
2021/07/29 11:12:01;;;;;;;11.90;2.90;;;;;;;;;;5139307;27;20401;-83
2021/07/29 11:14:30;;;;;;;7.72;2.95;;;;;;;;;;5159306;27;20018;-82
2021/07/29 11:17:03;;;;;;;8.75;4.22;;;;;;;;;;5156406;27;20047;-82
2021/07/29 11:19:48;;;;;;;7.95;4.63;;;;;;;;;;5143625;27;20035;-81
2021/07/29 11:22:17;;;;;;;12.95;2.47;;;;;;;;;;5156874;27;20018;-84
2021/07/29 11:24:44;;;;;;;;;;;;;;;;;;5138576;27;20027;-82
2021/07/29 11:27:13;;;;;;;9.10;3.67;;;;;;;;;;5155619;27;19922;-83
2021/07/29 11:29:59;;;;;;;11.13;4.15;;;;;;;;;;5137795;27;20022;-83
2021/07/29 11:32:33;;;;;;;8.77;3.53;;;;;;;;;;5138025;27;20033;-84
2021/07/29 11:34:59;;;;;;;7.53;4.00;;;;;;;;;;5157160;27;20092;-86
2021/07/29 11:37:35;;;;;;;6.40;2.42;;;;;;;;;;5138787;27;20030;-82
2021/07/29 11:40:03;;;;;;;17.90;5.40;;;;;;;;;;5156876;27;20026;-81
2021/07/29 11:42:39;;;;;;;12.18;4.88;;;;;;;;;;5158662;27;20027;-80
2021/07/29 11:45:29;;;;;;;9.15;2.20;;;;;;;;;;5159934;27;20038;-79
2021/07/29 11:47:54;;;;;;;7.47;3.50;;;;;;;;;;5158025;27;20513;-81
2021/07/29 11:50:40;;;;;;;6.75;3.50;;;;;;;;;;5158521;27;20060;-83
2021/07/29 11:53:12;;;;;;;5.75;1.95;;;;;;;;;;5157481;27;20048;-80
2021/07/29 11:55:40;;;;;;;9.25;1.75;;;;;;;;;;5157001;27;20026;-81
2021/07/29 11:58:08;;;;;;;8.38;3.80;;;;;;;;;;5156356;27;20023;-81
2021/07/29 12:00:35;;;;;;;5.95;2.08;;;;;;;;;;5155091;27;20108;-81
2021/07/29 12:03:01;;;;;;;5.00;3.40;;;;;;;;;;5160397;27;20386;-81
2021/07/29 12:05:35;;;;;;;7.65;4.55;;;;;;;;;;5153452;27;20056;-82
2021/07/29 12:08:03;;;;;;;7.80;1.88;;;;;;;;;;5154819;27;20019;-80
2021/07/29 12:10:39;;;;;;;6.40;3.55;;;;;;;;;;5169806;27;20019;-82
2021/07/29 12:13:08;;;;;;;6.95;1.58;;;;;;;;;;5155144;27;20031;-80
2021/07/29 12:15:34;;;;;;;;;;;;;;;;;;5154265;27;20026;-82
2021/07/29 12:18:20;;;;;;;6.10;3.42;;;;;;;;;;5173997;27;19935;-82
2021/07/29 12:21:01;;;;;;;7.93;2.15;;;;;;;;;;5176237;27;20082;-84
2021/07/29 12:23:54;;;;;;;7.45;3.22;;;;;;;;;;5158765;27;20017;-84
2021/07/29 12:26:28;;;;;;;5.75;2.38;;;;;;;;;;5155463;27;20025;-82
2021/07/29 12:29:33;;;;;;;4.75;1.27;;;;;;;;;;5157701;27;20057;-81
2021/07/29 12:32:26;;;;;;;5.65;2.35;;;;;;;;;;5156221;27;20033;-82
2021/07/29 12:34:55;;;;;;;5.82;3.38;;;;;;;;;;5157682;27;20076;-82
2021/07/29 12:37:35;;;;;;;7.75;3.95;;;;;;;;;;5174149;27;20105;-81
2021/07/29 12:40:02;;;;;;;5.82;3.45;;;;;;;;;;5170706;27;20023;-81
2021/07/29 12:42:30;;;;;;;4.70;4.18;;;;;;;;;;5134675;27;20031;-81
2021/07/29 12:45:08;;;;;;;9.90;1.77;;;;;;;;;;5138961;27;20110;-80
2021/07/29 12:47:37;;;;;;;5.25;3.88;;;;;;;;;;5151924;27;20023;-82
2021/07/29 12:50:42;;;;;;;11.52;2.50;;;;;;;;;;5153454;27;20019;-83
2021/07/29 12:53:24;;;;;;;4.25;2.30;;;;;;;;;;5130445;27;20042;-79
2021/07/29 12:55:56;;;;;;;8.52;4.15;;;;;;;;;;5153441;27;20024;-82
2021/07/29 12:58:47;;;;;;;4.13;1.95;;;;;;;;;;5134697;27;20023;-80
2021/07/29 13:01:19;;;;;;;6.68;2.22;;;;;;;;;;5134634;27;20091;-81
2021/07/29 13:04:09;;;;;;;5.95;1.77;;;;;;;;;;5131064;27;20027;-82
2021/07/29 13:06:34;;;;;;;8.32;2.25;;;;;;;;;;5142647;27;20019;-80
2021/07/29 13:09:00;;;;;;;11.52;2.08;;;;;;;;;;5138210;27;20023;-79
2021/07/29 13:11:27;;;;;;;5.93;2.00;;;;;;;;;;5139419;27;20102;-80
2021/07/29 13:13:53;;;;;;;6.43;2.60;;;;;;;;;;5137834;27;20021;-80
2021/07/29 13:16:18;;;;;;;5.32;1.52;;;;;;;;;;5141337;27;20035;-80
2021/07/29 13:18:44;;;;;;;5.80;1.77;;;;;;;;;;5159812;27;20102;-79
2021/07/29 13:21:10;;;;;;;6.45;2.17;;;;;;;;;;5158007;27;20055;-79
2021/07/29 13:23:39;;;;;;;3.70;1.92;;;;;;;;;;5150517;27;20015;-80
2021/07/29 13:26:07;;;;;;;5.85;1.65;;;;;;;;;;5120227;27;20015;-80
2021/07/29 13:28:33;;;;;;;10.70;2.22;;;;;;;;;;5138329;27;20020;-80
2021/07/29 13:31:01;;;;;;;5.95;2.03;;;;;;;;;;5137863;27;20030;-81
2021/07/29 13:33:27;;;;;;;4.63;2.13;;;;;;;;;;5137627;27;20070;-81
2021/07/29 13:35:55;;;;;;;7.95;3.30;;;;;;;;;;5146709;27;20379;-82
2021/07/29 13:38:27;;;;;;;8.40;2.38;;;;;;;;;;5136312;27;20019;-79
2021/07/29 13:40:53;;;;;;;3.88;1.65;;;;;;;;;;5136622;27;20023;-83
2021/07/29 13:43:23;;;;;;;10.20;4.15;;;;;;;;;;5135670;27;20080;-82
2021/07/29 13:45:51;;;;;;;7.13;2.80;;;;;;;;;;5151903;27;20098;-81
2021/07/29 13:48:22;;;;;;;8.73;2.65;;;;;;;;;;5150847;27;20020;-81
2021/07/29 13:51:00;;;;;;;8.20;2.25;;;;;;;;;;5150384;27;20019;-81
2021/07/29 13:53:38;;;;;;;;;;;;;;;;;;;;;
2021/07/29 13:56:10;;;;;;;20.77;5.57;;;;;;;;;;5153732;27;20047;-82
2021/07/29 13:58:58;;;;;;;9.07;3.20;;;;;;;;;;5155405;27;20090;-82
2021/07/29 14:01:30;;;;;;;14.38;3.80;;;;;;;;;;5136332;27;20035;-83
2021/07/29 14:03:59;;;;;;;7.55;3.13;;;;;;;;;;5154939;27;20083;-80
2021/07/29 14:06:25;;;;;;;5.50;2.22;;;;;;;;;;5144512;27;20072;-85
2021/07/29 14:08:53;;;;;;;11.82;3.50;;;;;;;;;;5135698;27;20031;-82
2021/07/29 14:11:19;;;;;;;6.88;2.53;;;;;;;;;;5117341;27;20027;-80
2021/07/29 14:13:45;;;;;;;7.10;4.32;;;;;;;;;;5136029;27;20019;-80
2021/07/29 14:16:10;;;;;;;7.03;2.30;;;;;;;;;;5135514;27;20063;-80
2021/07/29 14:18:37;;;;;;;8.20;1.80;;;;;;;;;;5135708;27;20054;-80
2021/07/29 14:23:29;;;;;;;6.25;2.05;;;;;;;;;;5121983;27;20110;-81
2021/07/29 14:25:56;;;;;;;7.88;2.28;;;;;;;;;;5138539;27;20479;-80
2021/07/29 14:28:25;;;;;;;8.20;3.83;;;;;;;;;;5135398;27;20034;-80
2021/07/29 14:30:51;;;;;;;5.80;2.33;;;;;;;;;;5135227;27;20435;-81
2021/07/29 14:33:17;;;;;;;4.40;2.25;;;;;;;;;;5135202;27;20059;-80
2021/07/29 14:35:44;;;;;;;5.90;2.60;;;;;;;;;;5135480;27;20046;-81
2021/07/29 14:38:10;;;;;;;19.27;2.75;;;;;;;;;;5134581;27;20023;-81
2021/07/29 14:40:37;;;;;;;6.65;2.60;;;;;;;;;;5135097;27;20019;-80
2021/07/29 14:43:04;;;;;;;6.65;3.40;;;;;;;;;;5134996;27;20038;-81
2021/07/29 14:50:42;;;;;;;9.75;2.45;;;;;;;;;;5135150;27;20118;-81
2021/07/29 14:53:08;;;;;;;8.43;2.85;;;;;;;;;;5136539;27;20026;-81
2021/07/29 14:56:01;;;;;;;8.50;2.97;;;;;;;;;;5135781;27;20023;-81
2021/07/29 16:09:08;;;;;;;11.40;3.97;;;;;;;;;;5139460;27;20038;-83